Time;durP1;ratioP1;P1;durP2;ratioP2;P2;SDS_P1;SDS_P2;PMS_P1;PMS_P2;Temp;Humidity;BMP_temperature;BMP_pressure;BME280_temperature;BME280_humidity;BME280_pressure;Samples;Min_cycle;Max_cycle;Signal;HPM_P1;HPM_P2
2022/06/26 00:01:24;;;;;;;8.95;7.57;;;17.70;99.90;;;;;;4997735;28;20489;-94
2022/06/26 00:03:50;;;;;;;15.65;8.40;;;17.70;99.90;;;;;;4998363;28;20067;-95
2022/06/26 00:06:16;;;;;;;10.70;8.35;;;17.70;99.90;;;;;;5000247;28;20053;-94
2022/06/26 00:08:42;;;;;;;10.90;9.35;;;17.70;99.90;;;;;;5001252;28;20045;-95
2022/06/26 00:11:07;;;;;;;14.57;9.20;;;17.70;99.90;;;;;;5002067;28;20041;-95
2022/06/26 00:13:33;;;;;;;13.48;9.23;;;17.60;99.90;;;;;;5001900;28;20136;-94
2022/06/26 00:15:59;;;;;;;13.52;8.90;;;17.60;99.90;;;;;;5001931;28;20046;-95
2022/06/26 00:18:25;;;;;;;9.90;8.25;;;17.60;99.90;;;;;;5002267;28;20045;-95
2022/06/26 00:20:51;;;;;;;12.73;8.10;;;17.70;99.90;;;;;;5001745;28;20045;-95
2022/06/26 00:23:17;;;;;;;10.55;8.88;;;17.60;99.90;;;;;;5001035;28;20045;-95
2022/06/26 00:25:43;;;;;;;13.98;10.60;;;17.70;99.90;;;;;;5001813;28;20460;-95
2022/06/26 00:28:09;;;;;;;13.07;9.57;;;17.70;99.90;;;;;;5002035;28;20078;-95
2022/06/26 00:30:35;;;;;;;13.23;9.82;;;17.70;99.90;;;;;;5000844;28;20409;-94
2022/06/26 00:33:00;;;;;;;12.57;9.82;;;17.70;99.90;;;;;;5001556;28;20042;-95
2022/06/26 00:35:26;;;;;;;11.32;9.40;;;17.60;99.90;;;;;;5002070;28;20061;-95
2022/06/26 00:37:52;;;;;;;13.05;10.05;;;17.60;99.90;;;;;;5002147;28;20143;-95
2022/06/26 00:40:17;;;;;;;19.67;10.88;;;17.60;99.90;;;;;;5001949;28;20510;-94
2022/06/26 00:42:43;;;;;;;12.45;10.20;;;17.50;99.90;;;;;;5001988;28;20040;-94
2022/06/26 00:45:09;;;;;;;12.95;9.25;;;17.50;99.90;;;;;;5002004;28;20041;-95
2022/06/26 00:47:35;;;;;;;12.27;10.60;;;17.50;99.90;;;;;;5002043;28;20042;-94
2022/06/26 00:50:01;;;;;;;11.38;8.50;;;17.40;99.90;;;;;;5001629;28;20052;-95
2022/06/26 00:52:28;;;;;;;11.35;9.48;;;17.40;99.90;;;;;;5001415;28;20042;-95
2022/06/26 00:54:54;;;;;;;16.75;10.30;;;17.40;99.90;;;;;;5001288;28;20055;-95
2022/06/26 00:57:21;;;;;;;13.45;10.13;;;17.30;99.90;;;;;;5001192;28;20132;-94
2022/06/26 00:59:48;;;;;;;15.48;10.27;;;17.30;99.90;;;;;;5001414;28;20045;-95
2022/06/26 01:02:14;;;;;;;16.48;11.82;;;17.30;99.90;;;;;;5001381;28;20059;-94
2022/06/26 01:04:41;;;;;;;13.40;10.40;;;17.30;99.90;;;;;;5000327;28;20132;-95
2022/06/26 01:07:07;;;;;;;14.82;10.95;;;17.20;99.90;;;;;;5001256;28;20041;-95
2022/06/26 01:09:34;;;;;;;13.05;11.02;;;17.20;99.90;;;;;;5001215;28;20081;-95
2022/06/26 01:12:00;;;;;;;15.82;11.82;;;17.20;99.90;;;;;;5001024;28;20037;-95
2022/06/26 01:14:25;;;;;;;14.27;12.43;;;17.20;99.90;;;;;;5000918;28;20052;-95
2022/06/26 01:16:52;;;;;;;15.70;12.90;;;17.20;99.90;;;;;;5000962;28;20124;-94
2022/06/26 01:19:20;;;;;;;17.55;13.82;;;17.10;99.90;;;;;;5001356;28;20060;-94
2022/06/26 01:21:46;;;;;;;14.65;12.23;;;17.10;99.90;;;;;;5001145;28;20067;-95
2022/06/26 01:24:13;;;;;;;29.73;17.30;;;17.10;99.90;;;;;;5000894;28;20514;-95
2022/06/26 01:26:40;;;;;;;25.38;18.92;;;17.10;99.90;;;;;;5000929;28;20052;-94
2022/06/26 01:29:06;;;;;;;24.45;20.63;;;17.30;99.90;;;;;;5000788;28;20571;-95
2022/06/26 01:31:34;;;;;;;27.65;21.00;;;17.50;99.90;;;;;;5000720;28;20098;-96
2022/06/26 01:34:03;;;;;;;26.60;18.05;;;17.60;99.90;;;;;;5000740;28;20087;-96
2022/06/26 01:36:29;;;;;;;24.73;15.68;;;17.70;99.90;;;;;;5000632;28;20060;-95
2022/06/26 01:38:54;;;;;;;27.65;17.08;;;17.80;99.90;;;;;;5000562;28;20045;-94
2022/06/26 01:41:20;;;;;;;27.50;16.23;;;17.90;99.90;;;;;;5000588;28;20099;-96
2022/06/26 01:43:46;;;;;;;20.27;15.95;;;18.00;99.90;;;;;;5001514;28;20071;-95
2022/06/26 01:46:11;;;;;;;22.48;15.38;;;18.10;99.90;;;;;;4999096;28;20123;-95
2022/06/26 01:48:38;;;;;;;22.30;15.43;;;18.10;99.90;;;;;;5000681;28;20041;-96
2022/06/26 01:51:04;;;;;;;25.77;15.25;;;18.10;99.90;;;;;;5000450;28;20104;-95
2022/06/26 01:53:30;;;;;;;20.65;15.32;;;18.10;99.90;;;;;;5000546;28;20413;-95
2022/06/26 01:55:56;;;;;;;19.67;15.25;;;18.20;99.90;;;;;;5000429;28;20045;-95
2022/06/26 01:58:23;;;;;;;25.33;15.32;;;18.20;99.90;;;;;;5000412;28;20464;-93
2022/06/26 02:00:50;;;;;;;23.27;13.88;;;18.20;99.90;;;;;;4999326;28;20432;-94
2022/06/26 02:03:17;;;;;;;19.02;13.98;;;18.20;99.90;;;;;;5000419;28;20046;-96
2022/06/26 02:05:43;;;;;;;23.05;13.57;;;18.20;99.90;;;;;;5000353;28;20052;-94
2022/06/26 02:08:10;;;;;;;18.90;13.27;;;18.20;99.90;;;;;;5000357;28;20038;-95
2022/06/26 02:13:40;;;;;;;20.27;11.32;;;18.30;99.90;;;;;;5016376;28;20049;-95
2022/06/26 02:16:11;;;;;;;18.80;10.40;;;18.20;99.90;;;;;;4999862;28;20049;-94
2022/06/26 02:18:39;;;;;;;20.35;11.13;;;18.30;99.90;;;;;;4999986;28;20515;-94
2022/06/26 02:21:08;;;;;;;16.02;9.73;;;18.30;99.90;;;;;;5000050;28;20081;-94
2022/06/26 02:23:34;;;;;;;15.45;9.43;;;18.30;99.90;;;;;;5000066;28;20041;-94
2022/06/26 02:26:00;;;;;;;13.02;9.57;;;18.20;99.90;;;;;;4996291;28;20058;-95
2022/06/26 02:28:26;;;;;;;11.90;8.73;;;18.30;99.90;;;;;;4995795;28;20072;-95
2022/06/26 02:30:51;;;;;;;13.57;8.50;;;18.30;99.90;;;;;;4996396;28;20077;-95
2022/06/26 02:33:19;;;;;;;14.73;7.68;;;18.30;99.90;;;;;;4994482;28;20499;-94
2022/06/26 02:35:47;;;;;;;12.93;7.47;;;18.30;99.90;;;;;;4996117;28;20095;-93
2022/06/26 02:38:12;;;;;;;24.35;9.43;;;18.30;99.90;;;;;;4980169;28;20050;-96
2022/06/26 02:40:38;;;;;;;13.68;7.63;;;18.30;99.90;;;;;;4980147;28;20149;-94
2022/06/26 02:43:04;;;;;;;19.20;9.10;;;18.20;99.90;;;;;;4979902;28;20180;-94
2022/06/26 02:45:30;;;;;;;18.73;9.63;;;18.10;99.90;;;;;;4980143;28;20112;-94
2022/06/26 02:48:01;;;;;;;14.98;8.32;;;18.10;99.90;;;;;;4979999;28;20480;-96
2022/06/26 02:50:26;;;;;;;14.35;8.20;;;18.20;99.90;;;;;;4979926;28;20054;-96
2022/06/26 02:52:53;;;;;;;24.10;9.00;;;18.10;99.90;;;;;;4980761;28;20157;-95
2022/06/26 02:55:23;;;;;;;15.48;7.97;;;18.00;99.90;;;;;;4984164;28;20132;-96
2022/06/26 02:58:13;;;;;;;16.05;7.35;;;18.00;99.90;;;;;;4994110;28;20038;-96
2022/06/26 03:01:02;;;;;;;10.50;4.93;;;17.90;99.90;;;;;;5006555;28;20089;-96
2022/06/26 03:03:39;;;;;;;18.25;5.10;;;17.80;99.90;;;;;;5004937;28;20564;-96
2022/06/26 03:06:25;;;;;;;10.65;4.82;;;17.80;99.90;;;;;;5009007;28;20089;-96
2022/06/26 03:09:39;;;;;;;9.07;4.80;;;17.60;99.90;;;;;;5006102;28;20050;-96
2022/06/26 03:12:53;;;;;;;11.68;4.80;;;17.60;99.90;;;;;;5018056;28;20050;-96
2022/06/26 03:15:41;;;;;;;;;;;;;;;;;;;;;
2022/06/26 03:18:15;;;;;;;8.65;4.90;;;17.60;99.90;;;;;;4989763;28;20050;-96
2022/06/26 03:20:49;;;;;;;9.80;4.30;;;17.60;99.90;;;;;;4991438;28;20088;-96
2022/06/26 03:23:17;;;;;;;11.27;4.25;;;17.60;99.90;;;;;;4986602;28;20081;-96
2022/06/26 03:25:55;;;;;;;5.82;3.70;;;17.50;99.90;;;;;;5004546;28;20060;-96
2022/06/26 03:28:27;;;;;;;6.50;3.35;;;17.50;99.90;;;;;;4988714;28;20049;-96
2022/06/26 03:30:53;;;;;;;8.05;3.63;;;17.50;99.90;;;;;;4998434;28;20140;-96
2022/06/26 03:33:19;;;;;;;6.30;3.10;;;17.50;99.90;;;;;;4986869;28;20049;-96
2022/06/26 03:35:45;;;;;;;7.47;3.47;;;17.50;99.90;;;;;;4984299;28;20042;-96
2022/06/26 03:38:11;;;;;;;5.30;3.10;;;17.50;99.90;;;;;;4984546;28;20048;-96
2022/06/26 03:40:37;;;;;;;7.18;3.25;;;17.50;99.90;;;;;;4990317;28;20058;-96
2022/06/26 03:43:18;;;;;;;8.15;3.42;;;17.50;99.90;;;;;;4992744;28;20042;-96
2022/06/26 03:45:44;;;;;;;6.43;3.67;;;17.50;99.90;;;;;;5005660;28;20069;-96
2022/06/26 03:48:10;;;;;;;8.10;3.70;;;17.50;99.90;;;;;;4989322;28;20465;-96
2022/06/26 03:50:36;;;;;;;8.70;3.90;;;17.50;99.90;;;;;;4990149;28;20042;-96
2022/06/26 03:53:02;;;;;;;7.47;3.72;;;17.50;99.90;;;;;;4987535;28;20415;-96
2022/06/26 03:55:29;;;;;;;11.23;4.07;;;17.50;99.90;;;;;;5021680;28;20054;-96
2022/06/26 03:57:54;;;;;;;8.68;3.63;;;17.50;99.90;;;;;;4988511;28;20042;-96
2022/06/26 04:00:20;;;;;;;7.10;3.20;;;17.50;99.90;;;;;;5002660;28;20107;-96
2022/06/26 04:02:46;;;;;;;8.52;3.72;;;17.50;99.90;;;;;;5007068;28;20064;-96
2022/06/26 04:05:12;;;;;;;11.35;4.07;;;17.50;99.90;;;;;;5005171;28;20557;-96
2022/06/26 04:07:38;;;;;;;7.63;4.05;;;17.50;99.90;;;;;;5004151;28;20045;-96
2022/06/26 04:10:04;;;;;;;8.95;4.20;;;17.50;99.90;;;;;;5005917;28;20440;-96
2022/06/26 04:12:30;;;;;;;6.22;3.42;;;17.50;99.90;;;;;;5004295;28;20044;-96
2022/06/26 04:14:56;;;;;;;10.40;3.75;;;17.50;99.90;;;;;;5003000;28;20545;-96
2022/06/26 04:17:22;;;;;;;8.18;3.60;;;17.50;99.90;;;;;;5002734;28;20068;-96
2022/06/26 04:19:49;;;;;;;6.57;3.60;;;17.50;99.90;;;;;;5003791;28;20045;-96
2022/06/26 04:22:15;;;;;;;6.28;3.80;;;17.50;99.90;;;;;;5005850;28;20076;-96
2022/06/26 04:24:41;;;;;;;7.57;3.28;;;17.50;99.90;;;;;;5003339;28;20140;-96
2022/06/26 04:27:07;;;;;;;9.68;3.65;;;17.50;99.90;;;;;;5020169;28;20073;-96
2022/06/26 04:29:33;;;;;;;6.03;3.30;;;17.50;99.90;;;;;;5002843;28;20038;-96
2022/06/26 04:31:59;;;;;;;7.97;3.55;;;17.60;99.90;;;;;;5002084;28;20053;-96
2022/06/26 04:34:24;;;;;;;6.80;3.45;;;17.60;99.90;;;;;;5002916;28;20041;-96
2022/06/26 04:36:50;;;;;;;6.15;3.22;;;17.70;99.90;;;;;;5002420;28;20041;-96
2022/06/26 04:39:16;;;;;;;7.53;3.30;;;17.60;99.90;;;;;;5002797;28;20108;-96
2022/06/26 04:41:42;;;;;;;5.88;3.20;;;17.60;99.90;;;;;;5004823;28;20080;-96
2022/06/26 04:44:10;;;;;;;5.72;3.15;;;17.60;99.90;;;;;;5001589;28;20049;-96
2022/06/26 04:46:37;;;;;;;8.07;3.55;;;17.70;99.90;;;;;;5005154;28;20044;-96
2022/06/26 04:49:04;;;;;;;7.63;3.42;;;17.70;99.90;;;;;;5018066;28;20053;-96
2022/06/26 04:51:30;;;;;;;6.38;2.75;;;17.70;99.90;;;;;;5000917;28;20037;-95
2022/06/26 04:53:55;;;;;;;6.18;3.05;;;17.70;99.90;;;;;;5005576;28;20107;-96
2022/06/26 04:56:21;;;;;;;8.13;2.78;;;17.70;99.90;;;;;;5000541;28;20490;-96
2022/06/26 04:58:47;;;;;;;6.03;3.50;;;17.70;99.90;;;;;;5003730;28;20087;-96
2022/06/26 05:01:14;;;;;;;8.65;3.85;;;17.70;99.90;;;;;;5002352;28;20050;-96
2022/06/26 05:03:40;;;;;;;8.82;3.75;;;17.70;99.90;;;;;;5005231;28;20048;-96
2022/06/26 05:06:07;;;;;;;5.50;3.38;;;17.80;99.90;;;;;;5001834;28;20060;-96
2022/06/26 05:08:33;;;;;;;6.47;3.50;;;17.80;99.90;;;;;;5017986;28;20046;-96
2022/06/26 05:10:58;;;;;;;7.57;3.58;;;17.80;99.90;;;;;;5001373;28;20041;-96
2022/06/26 05:13:24;;;;;;;7.03;3.92;;;17.90;99.90;;;;;;5000939;28;20048;-96
2022/06/26 05:15:50;;;;;;;7.72;3.50;;;17.90;99.90;;;;;;5001686;28;20041;-96
2022/06/26 05:18:16;;;;;;;8.43;3.50;;;17.90;99.90;;;;;;5000807;28;20454;-96
2022/06/26 05:20:41;;;;;;;8.75;3.75;;;18.00;99.90;;;;;;4999936;28;20056;-96
2022/06/26 05:25:43;;;;;;;9.40;3.97;;;18.00;99.90;;;;;;5470390;22;20061;-96
2022/06/26 05:28:09;;;;;;;6.15;3.85;;;18.20;99.90;;;;;;4981223;28;20054;-96
2022/06/26 05:30:35;;;;;;;7.18;4.50;;;18.30;99.90;;;;;;4985145;28;20596;-96
2022/06/26 05:33:02;;;;;;;9.25;3.75;;;18.30;99.90;;;;;;4982013;28;20088;-96
2022/06/26 05:35:27;;;;;;;6.88;3.65;;;18.40;99.90;;;;;;4981064;28;20056;-96
2022/06/26 05:37:53;;;;;;;11.48;3.75;;;18.50;99.90;;;;;;4981528;28;20046;-96
2022/06/26 05:40:19;;;;;;;7.55;3.70;;;18.50;99.90;;;;;;4981623;28;20089;-96
2022/06/26 05:42:45;;;;;;;6.55;4.07;;;18.60;99.90;;;;;;4991601;28;20048;-96
2022/06/26 05:45:11;;;;;;;7.15;4.38;;;18.50;99.90;;;;;;4983102;28;20046;-95
2022/06/26 05:47:37;;;;;;;5.55;3.92;;;18.40;99.90;;;;;;4983037;28;20092;-96
2022/06/26 05:50:04;;;;;;;6.65;4.20;;;18.40;99.90;;;;;;4981168;28;20078;-96
2022/06/26 05:52:30;;;;;;;7.22;4.00;;;18.40;99.90;;;;;;4981110;28;20164;-96
2022/06/26 05:54:55;;;;;;;6.53;4.32;;;18.40;99.90;;;;;;4980614;28;20153;-95
2022/06/26 05:57:21;;;;;;;7.43;4.38;;;18.40;99.90;;;;;;4980310;28;20245;-96
2022/06/26 05:59:47;;;;;;;8.25;4.25;;;18.40;99.90;;;;;;4978420;28;20112;-96
2022/06/26 06:02:13;;;;;;;7.45;3.78;;;18.40;99.90;;;;;;4979225;28;20038;-96
2022/06/26 06:04:39;;;;;;;10.20;4.20;;;18.40;99.90;;;;;;4976537;28;20061;-95
2022/06/26 06:07:05;;;;;;;7.90;4.35;;;18.50;99.90;;;;;;4980511;28;20042;-96
2022/06/26 06:09:32;;;;;;;7.30;5.18;;;18.50;99.90;;;;;;4977435;28;20050;-96
2022/06/26 06:11:58;;;;;;;7.38;4.95;;;18.60;99.90;;;;;;4977475;28;20042;-95
2022/06/26 06:14:24;;;;;;;7.40;5.22;;;18.60;99.90;;;;;;4979042;28;20050;-96
2022/06/26 06:16:50;;;;;;;11.18;6.53;;;18.60;99.90;;;;;;4978980;28;20512;-96
2022/06/26 06:19:15;;;;;;;7.35;5.55;;;18.60;99.90;;;;;;4977228;28;20137;-96
2022/06/26 06:21:41;;;;;;;9.07;5.70;;;18.60;99.90;;;;;;4977472;28;20096;-96
2022/06/26 06:24:07;;;;;;;8.52;6.60;;;18.60;99.90;;;;;;4980805;28;20054;-96
2022/06/26 06:26:33;;;;;;;10.35;6.43;;;18.60;99.90;;;;;;4976891;28;20073;-96
2022/06/26 06:28:59;;;;;;;10.38;7.15;;;18.60;99.90;;;;;;4978666;28;20050;-96
2022/06/26 06:31:25;;;;;;;9.88;7.00;;;18.80;99.90;;;;;;4977244;28;20065;-96
2022/06/26 06:33:51;;;;;;;10.85;7.07;;;18.80;99.90;;;;;;4979089;28;20501;-96
2022/06/26 06:36:17;;;;;;;13.90;8.75;;;18.90;99.90;;;;;;4977419;28;20046;-96
2022/06/26 06:38:43;;;;;;;13.43;8.00;;;18.90;99.90;;;;;;4978719;28;20046;-95
2022/06/26 06:41:09;;;;;;;14.95;8.02;;;19.00;99.90;;;;;;4977064;28;20078;-95
2022/06/26 06:43:35;;;;;;;12.88;7.93;;;19.10;99.90;;;;;;4963211;28;20042;-95
2022/06/26 06:46:00;;;;;;;16.27;9.88;;;19.10;99.90;;;;;;4983253;28;20046;-94
2022/06/26 06:48:26;;;;;;;12.73;9.25;;;19.20;99.90;;;;;;4984433;28;20078;-96
2022/06/26 06:50:53;;;;;;;13.13;9.43;;;19.30;99.90;;;;;;4970850;28;20053;-94
2022/06/26 06:53:20;;;;;;;12.85;9.73;;;19.40;99.90;;;;;;4983801;28;20046;-94
2022/06/26 06:55:46;;;;;;;12.88;9.27;;;19.40;99.90;;;;;;4986050;28;20046;-94
2022/06/26 06:58:12;;;;;;;12.73;9.90;;;19.50;99.90;;;;;;4973458;28;20125;-95
2022/06/26 07:00:39;;;;;;;16.73;10.50;;;19.60;99.90;;;;;;4990743;28;20116;-95
2022/06/26 07:03:06;;;;;;;14.30;11.68;;;19.60;99.90;;;;;;4980017;28;20038;-95
2022/06/26 07:05:32;;;;;;;14.15;10.75;;;19.50;99.90;;;;;;4997431;28;20053;-95
2022/06/26 07:07:59;;;;;;;14.60;10.35;;;19.60;99.90;;;;;;4998435;28;20125;-94
2022/06/26 07:10:25;;;;;;;14.48;11.68;;;19.60;99.90;;;;;;4979002;28;20065;-94
2022/06/26 07:12:53;;;;;;;14.15;12.32;;;19.50;99.90;;;;;;4970087;28;20483;-94
2022/06/26 07:15:19;;;;;;;14.95;11.18;;;19.50;99.90;;;;;;4979049;28;20043;-95
2022/06/26 07:17:45;;;;;;;16.58;12.55;;;19.60;99.90;;;;;;4962434;28;20089;-94
2022/06/26 07:20:11;;;;;;;15.43;13.15;;;19.70;99.90;;;;;;4977531;28;20084;-94
2022/06/26 07:22:37;;;;;;;15.77;12.80;;;19.90;99.90;;;;;;4978793;28;20046;-94
2022/06/26 07:25:04;;;;;;;15.65;12.73;;;19.90;99.90;;;;;;4978951;28;20058;-94
2022/06/26 07:27:30;;;;;;;16.63;13.27;;;20.00;99.90;;;;;;4979348;28;20054;-94
2022/06/26 07:29:56;;;;;;;14.88;13.13;;;20.00;99.90;;;;;;4998538;28;20117;-94
2022/06/26 07:32:22;;;;;;;18.02;14.40;;;20.00;99.90;;;;;;4995941;28;20113;-93
2022/06/26 07:34:47;;;;;;;20.27;14.45;;;19.90;99.90;;;;;;4995803;28;20050;-95
2022/06/26 07:37:13;;;;;;;17.35;14.95;;;19.80;99.90;;;;;;4996295;28;20038;-94
2022/06/26 07:39:39;;;;;;;19.85;14.15;;;19.70;99.90;;;;;;4995118;28;20517;-94
2022/06/26 07:42:05;;;;;;;16.88;14.90;;;19.70;99.90;;;;;;4997631;28;20050;-93
2022/06/26 07:44:31;;;;;;;17.95;15.18;;;19.70;99.90;;;;;;4979715;28;20053;-94
2022/06/26 07:46:57;;;;;;;22.83;14.77;;;19.60;99.90;;;;;;4995854;28;20042;-94
2022/06/26 07:49:23;;;;;;;17.95;15.57;;;19.60;99.90;;;;;;4996308;28;20081;-93
2022/06/26 07:51:50;;;;;;;16.98;14.35;;;19.60;99.90;;;;;;4995567;28;20496;-94
2022/06/26 07:54:16;;;;;;;16.58;14.45;;;19.60;99.90;;;;;;4995534;28;20054;-94
2022/06/26 07:56:42;;;;;;;19.38;14.82;;;19.70;99.90;;;;;;4995284;28;20044;-94
2022/06/26 07:59:08;;;;;;;18.67;15.50;;;19.90;99.90;;;;;;4995180;28;20164;-94
2022/06/26 08:01:35;;;;;;;17.33;14.88;;;20.00;99.90;;;;;;4963717;28;20053;-93
2022/06/26 08:04:02;;;;;;;17.35;14.25;;;20.10;99.90;;;;;;4959007;28;20038;-93
2022/06/26 08:06:29;;;;;;;19.30;14.63;;;20.30;99.90;;;;;;4958350;28;20582;-94
2022/06/26 08:08:56;;;;;;;18.02;15.45;;;20.40;99.90;;;;;;5015141;23;20053;-93
2022/06/26 08:11:22;;;;;;;16.92;15.00;;;20.60;99.90;;;;;;5000115;28;20058;-94
2022/06/26 08:13:48;;;;;;;20.35;14.00;;;20.80;99.90;;;;;;4999610;28;20038;-94
2022/06/26 08:16:14;;;;;;;15.82;12.82;;;20.90;99.90;;;;;;4998269;28;20061;-94
2022/06/26 08:18:41;;;;;;;14.27;11.95;;;21.00;99.90;;;;;;5000256;28;20037;-94
2022/06/26 08:23:51;;;;;;;21.55;13.35;;;21.00;99.90;;;;;;5026071;28;20021;-95
2022/06/26 08:26:17;;;;;;;14.40;12.75;;;21.00;99.90;;;;;;4997144;28;20137;-93
2022/06/26 08:28:43;;;;;;;16.70;9.70;;;21.10;99.90;;;;;;5001675;28;20248;-93
2022/06/26 08:31:08;;;;;;;15.73;9.13;;;21.40;99.90;;;;;;5003800;28;20478;-93
2022/06/26 08:33:34;;;;;;;10.95;8.20;;;21.50;99.90;;;;;;5003732;28;20049;-94
2022/06/26 08:36:00;;;;;;;10.30;7.53;;;21.60;99.90;;;;;;5003002;28;20083;-94
2022/06/26 08:38:26;;;;;;;10.95;7.10;;;21.90;99.90;;;;;;5002035;28;20072;-92
2022/06/26 08:40:53;;;;;;;10.95;7.07;;;22.00;99.90;;;;;;5002091;28;20111;-94
2022/06/26 08:43:22;;;;;;;11.98;7.80;;;22.20;99.90;;;;;;5002342;28;20057;-93
2022/06/26 08:45:53;;;;;;;12.23;8.25;;;22.30;99.90;;;;;;5000331;28;20045;-94
2022/06/26 08:48:20;;;;;;;16.20;7.85;;;22.50;99.90;;;;;;5000540;28;20440;-94
2022/06/26 08:50:46;;;;;;;15.05;9.05;;;22.70;99.90;;;;;;4984705;28;20050;-94
2022/06/26 08:53:16;;;;;;;12.48;8.43;;;22.80;99.90;;;;;;4982248;28;20041;-95
2022/06/26 08:55:43;;;;;;;12.95;8.07;;;22.90;99.90;;;;;;4981764;28;20085;-95
2022/06/26 08:58:09;;;;;;;12.73;8.43;;;22.90;99.90;;;;;;4981971;28;20413;-95
2022/06/26 09:00:35;;;;;;;11.10;8.30;;;22.90;99.90;;;;;;4982018;28;20045;-94
2022/06/26 09:03:02;;;;;;;13.13;9.13;;;23.00;99.90;;;;;;4981837;28;20049;-95
2022/06/26 09:05:28;;;;;;;13.77;8.73;;;23.20;99.90;;;;;;4981033;28;20104;-96
2022/06/26 09:07:56;;;;;;;11.05;7.00;;;23.30;99.90;;;;;;4985792;28;20054;-95
2022/06/26 09:10:26;;;;;;;10.65;7.15;;;23.30;99.90;;;;;;4997903;28;20498;-96
2022/06/26 09:12:54;;;;;;;10.75;4.68;;;23.10;99.90;;;;;;4998217;28;20494;-95
2022/06/26 09:15:21;;;;;;;8.65;5.15;;;23.00;99.90;;;;;;4997484;28;20049;-95
2022/06/26 09:17:58;;;;;;;9.35;5.95;;;22.90;99.90;;;;;;4997967;28;20046;-96
2022/06/26 09:20:23;;;;;;;10.07;4.75;;;23.00;99.90;;;;;;4999788;28;20077;-94
2022/06/26 09:22:54;;;;;;;11.27;5.93;;;23.10;99.90;;;;;;5001691;28;20474;-95
2022/06/26 09:25:20;;;;;;;7.60;4.40;;;23.10;99.90;;;;;;5030370;28;20042;-96
2022/06/26 09:27:46;;;;;;;7.75;3.85;;;23.10;99.90;;;;;;5014705;28;20046;-96
2022/06/26 09:30:12;;;;;;;8.25;4.10;;;23.10;99.90;;;;;;5014157;28;20045;-95
2022/06/26 09:32:38;;;;;;;7.60;4.07;;;23.10;99.90;;;;;;5029386;28;20060;-94
2022/06/26 09:35:04;;;;;;;5.70;3.25;;;23.30;99.90;;;;;;5032371;28;20600;-95
2022/06/26 09:37:36;;;;;;;7.82;2.38;;;23.50;99.90;;;;;;4998843;28;20478;-95
2022/06/26 09:40:04;;;;;;;6.15;2.70;;;23.60;99.90;;;;;;5014158;28;20050;-96
2022/06/26 09:42:33;;;;;;;5.03;2.90;;;23.70;99.90;;;;;;4989989;28;20050;-95
2022/06/26 09:45:01;;;;;;;5.88;2.28;;;23.80;99.90;;;;;;5013809;28;20045;-94
2022/06/26 09:47:29;;;;;;;3.80;1.90;;;23.90;99.90;;;;;;5015134;28;20145;-95
2022/06/26 09:49:57;;;;;;;8.25;2.42;;;24.00;99.90;;;;;;5030067;28;20088;-95
2022/06/26 09:52:25;;;;;;;4.05;2.28;;;24.20;99.90;;;;;;5014890;28;20068;-94
2022/06/26 09:54:53;;;;;;;6.63;2.53;;;24.30;99.90;;;;;;5029954;28;20173;-96
2022/06/26 09:57:19;;;;;;;14.75;2.95;;;24.50;99.90;;;;;;5031715;28;20042;-95
2022/06/26 09:59:45;;;;;;;5.00;2.58;;;24.40;99.90;;;;;;5017899;28;20049;-95
2022/06/26 10:07:51;;;;;;;6.32;2.63;;;23.30;99.90;;;;;;5012829;28;20003;-95
2022/06/26 10:10:20;;;;;;;5.50;2.17;;;22.90;99.90;;;;;;5031305;28;20049;-96
2022/06/26 10:12:52;;;;;;;6.35;3.47;;;22.80;99.90;;;;;;5007207;28;20049;-95
2022/06/26 10:15:19;;;;;;;7.18;3.53;;;22.80;99.90;;;;;;4999794;28;20050;-96
2022/06/26 10:17:58;;;;;;;6.20;3.20;;;22.90;99.90;;;;;;4996690;28;20049;-96
2022/06/26 10:20:24;;;;;;;6.35;3.58;;;23.00;99.90;;;;;;4996575;28;20490;-94
2022/06/26 10:22:50;;;;;;;9.15;3.30;;;23.10;99.90;;;;;;4996765;28;20050;-95
2022/06/26 10:25:23;;;;;;;7.25;2.80;;;23.20;99.90;;;;;;4996402;28;20049;-96
2022/06/26 10:27:49;;;;;;;4.72;2.42;;;23.30;99.90;;;;;;4996753;28;20504;-95
2022/06/26 10:30:17;;;;;;;5.95;2.10;;;23.30;99.90;;;;;;4998076;28;20129;-95
2022/06/26 10:32:43;;;;;;;7.20;2.30;;;23.40;99.90;;;;;;4995208;28;20049;-96
2022/06/26 10:35:11;;;;;;;4.75;2.05;;;23.50;99.90;;;;;;4996517;28;20073;-96
2022/06/26 10:37:48;;;;;;;6.82;2.15;;;23.60;99.90;;;;;;4996574;28;20042;-95
2022/06/26 10:43:04;;;;;;;6.85;1.88;;;23.70;99.90;;;;;;5012494;28;20050;-95
2022/06/26 10:45:36;;;;;;;6.38;2.15;;;23.50;99.90;;;;;;4996098;28;20057;-96
2022/06/26 10:48:06;;;;;;;4.00;1.92;;;23.40;99.90;;;;;;4996253;28;20429;-95
2022/06/26 10:50:36;;;;;;;4.72;2.00;;;23.40;99.90;;;;;;4984831;28;20482;-95
2022/06/26 10:53:23;;;;;;;5.05;2.00;;;23.40;99.90;;;;;;4999820;28;20045;-95
2022/06/26 10:55:53;;;;;;;3.50;1.90;;;23.40;99.90;;;;;;4995663;28;20046;-94
2022/06/26 10:58:22;;;;;;;10.38;2.22;;;23.40;99.90;;;;;;4997538;28;20057;-95
2022/06/26 11:00:49;;;;;;;5.72;2.55;;;23.40;99.90;;;;;;4996065;28;20485;-95
2022/06/26 11:03:17;;;;;;;6.55;2.50;;;23.50;99.90;;;;;;4998057;28;20085;-95
2022/06/26 11:05:53;;;;;;;6.60;2.33;;;23.50;99.90;;;;;;4996015;28;20054;-95
2022/06/26 11:08:27;;;;;;;7.65;2.35;;;23.50;99.90;;;;;;4995652;28;20444;-95
2022/06/26 11:10:57;;;;;;;5.03;2.10;;;23.50;99.90;;;;;;4996100;28;20148;-94
2022/06/26 11:13:24;;;;;;;6.78;1.90;;;23.50;99.90;;;;;;4995789;28;20053;-95
2022/06/26 11:15:50;;;;;;;7.00;2.13;;;23.60;99.90;;;;;;4996300;28;20042;-95
2022/06/26 11:18:16;;;;;;;5.22;2.20;;;23.60;99.90;;;;;;4995807;28;20042;-96
2022/06/26 11:20:50;;;;;;;5.85;1.90;;;23.70;99.90;;;;;;4995773;28;20056;-94
2022/06/26 11:23:21;;;;;;;6.57;2.40;;;23.80;99.90;;;;;;4997863;28;20041;-95
2022/06/26 11:25:49;;;;;;;4.68;1.98;;;23.80;99.90;;;;;;4995648;28;20136;-94
2022/06/26 11:28:16;;;;;;;5.20;2.20;;;23.80;99.90;;;;;;4995790;28;20042;-95
2022/06/26 11:30:44;;;;;;;4.75;2.10;;;24.00;99.90;;;;;;4995868;28;20128;-95
2022/06/26 11:33:11;;;;;;;6.32;2.28;;;24.20;99.90;;;;;;4995520;28;20048;-94
2022/06/26 11:35:37;;;;;;;5.70;2.00;;;24.40;99.90;;;;;;4997457;28;20046;-95
2022/06/26 11:38:13;;;;;;;4.15;1.70;;;24.50;99.90;;;;;;4995721;28;20135;-95
2022/06/26 11:40:39;;;;;;;6.05;2.10;;;24.60;99.90;;;;;;4997005;28;20064;-95
2022/06/26 11:43:05;;;;;;;6.05;2.22;;;24.70;99.90;;;;;;4997293;28;20034;-95
2022/06/26 11:45:32;;;;;;;4.32;1.90;;;24.60;99.90;;;;;;4995469;28;20119;-95
2022/06/26 11:48:00;;;;;;;4.30;2.10;;;24.50;99.90;;;;;;4995528;28;20085;-95
2022/06/26 11:50:32;;;;;;;4.22;1.95;;;24.40;99.90;;;;;;4995183;28;20038;-95
2022/06/26 11:52:58;;;;;;;5.22;1.90;;;24.30;99.90;;;;;;4997555;28;20054;-95
2022/06/26 11:55:24;;;;;;;4.03;1.65;;;24.20;99.90;;;;;;4996901;28;20050;-96
2022/06/26 11:57:52;;;;;;;7.65;1.75;;;24.40;99.90;;;;;;4995201;28;20104;-95
2022/06/26 12:00:19;;;;;;;4.57;1.80;;;24.40;99.90;;;;;;4995796;28;20052;-95
2022/06/26 12:02:48;;;;;;;5.35;1.48;;;24.50;99.90;;;;;;4999461;28;20045;-96
2022/06/26 12:05:20;;;;;;;4.93;1.48;;;24.50;99.90;;;;;;4999411;28;20046;-95
2022/06/26 12:07:48;;;;;;;7.97;1.70;;;24.50;99.90;;;;;;4999600;28;20145;-95
2022/06/26 12:10:26;;;;;;;4.68;1.58;;;24.50;99.90;;;;;;5015367;28;20397;-96
2022/06/26 12:12:52;;;;;;;4.93;1.20;;;24.60;99.90;;;;;;5008248;28;20525;-95
2022/06/26 12:15:18;;;;;;;5.15;1.50;;;24.60;99.90;;;;;;5021140;28;20041;-95
2022/06/26 12:17:51;;;;;;;3.33;1.40;;;24.60;99.90;;;;;;5019431;28;20057;-95
2022/06/26 12:20:17;;;;;;;3.47;1.17;;;24.60;99.90;;;;;;5018561;28;20107;-95
2022/06/26 12:22:49;;;;;;;7.78;1.35;;;24.70;99.90;;;;;;5018125;28;20453;-95
2022/06/26 12:25:30;;;;;;;4.50;1.13;;;24.70;99.90;;;;;;5018147;28;20041;-95
2022/06/26 12:27:58;;;;;;;3.67;1.10;;;24.70;99.90;;;;;;5018320;28;20106;-96
2022/06/26 12:30:33;;;;;;;4.13;1.35;;;24.70;99.90;;;;;;5018761;28;20045;-96
2022/06/26 12:32:59;;;;;;;6.30;1.30;;;24.70;99.90;;;;;;5018611;28;20064;-95
2022/06/26 12:35:27;;;;;;;5.90;1.42;;;24.70;99.90;;;;;;5021431;28;20076;-96
2022/06/26 12:37:54;;;;;;;4.60;1.38;;;24.80;99.90;;;;;;5018892;28;20081;-95
2022/06/26 12:40:20;;;;;;;3.38;1.40;;;24.90;99.90;;;;;;5018055;28;20485;-96
2022/06/26 12:42:46;;;;;;;6.38;1.60;;;25.00;99.90;;;;;;5018650;28;20128;-96
2022/06/26 12:45:13;;;;;;;6.07;1.42;;;25.10;99.90;;;;;;5018246;28;20076;-96
2022/06/26 12:47:39;;;;;;;10.73;1.40;;;25.00;99.90;;;;;;5023363;28;20482;-94
2022/06/26 12:50:06;;;;;;;3.45;1.40;;;25.10;99.90;;;;;;5017259;28;20057;-95
2022/06/26 12:52:32;;;;;;;5.80;1.48;;;25.00;99.90;;;;;;5018757;28;20149;-95
2022/06/26 12:55:00;;;;;;;5.80;1.80;;;24.90;99.90;;;;;;5016841;28;20049;-94
2022/06/26 12:57:26;;;;;;;4.00;1.40;;;24.80;99.90;;;;;;5017892;28;20493;-96
2022/06/26 12:59:52;;;;;;;6.55;1.50;;;24.70;99.90;;;;;;5018185;28;20050;-95